Time;durP1;ratioP1;P1;durP2;ratioP2;P2;SDS_P1;SDS_P2;PMS_P1;PMS_P2;Temp;Humidity;BMP_temperature;BMP_pressure;BME280_temperature;BME280_humidity;BME280_pressure;Samples;Min_cycle;Max_cycle;Signal;HPM_P1;HPM_P2
2022/08/07 00:00:14;;;;;;;;;;;17.50;47.20;;;;;;4944812;29;20312;-89
2022/08/07 00:02:39;;;;;;;;;;;17.50;47.30;;;;;;4943981;29;19965;-91
2022/08/07 00:05:05;;;;;;;;;;;17.50;47.70;;;;;;4944224;29;19915;-90
2022/08/07 00:07:30;;;;;;;;;;;17.50;47.70;;;;;;4926657;29;19950;-89
2022/08/07 00:09:56;;;;;;;;;;;17.50;47.70;;;;;;4925645;29;19922;-91
2022/08/07 00:12:21;;;;;;;;;;;17.50;47.70;;;;;;4945217;29;19911;-89
2022/08/07 00:14:47;;;;;;;;;;;17.50;47.90;;;;;;4945335;29;20323;-89
2022/08/07 00:17:12;;;;;;;;;;;17.50;48.00;;;;;;4931898;29;19922;-89
2022/08/07 00:19:37;;;;;;;;;;;17.50;48.10;;;;;;4947731;29;20578;-88
2022/08/07 00:22:03;;;;;;;;;;;17.50;48.20;;;;;;4937037;29;20018;-89
2022/08/07 00:24:29;;;;;;;;;;;17.40;48.30;;;;;;4933626;29;19985;-89
2022/08/07 00:26:54;;;;;;;;;;;17.40;48.40;;;;;;4935517;29;19918;-89
2022/08/07 00:29:24;;;;;;;;;;;17.40;48.20;;;;;;4931330;29;19915;-89
2022/08/07 00:31:50;;;;;;;;;;;17.40;48.40;;;;;;4932943;29;19918;-89
2022/08/07 00:34:16;;;;;;;;;;;17.40;48.30;;;;;;4950840;29;19921;-88
2022/08/07 00:36:42;;;;;;;;;;;17.30;48.40;;;;;;4950065;29;19919;-89
2022/08/07 00:39:08;;;;;;;;;;;17.30;48.30;;;;;;4933246;29;19914;-89
2022/08/07 00:41:33;;;;;;;;;;;17.30;48.40;;;;;;4936726;29;19914;-89
2022/08/07 00:43:59;;;;;;;;;;;17.30;48.70;;;;;;4929849;29;19914;-90
2022/08/07 00:46:25;;;;;;;;;;;17.20;48.60;;;;;;4922982;29;20356;-88
2022/08/07 00:48:50;;;;;;;;;;;17.20;48.80;;;;;;4923169;29;20414;-89
2022/08/07 00:51:16;;;;;;;;;;;17.20;48.80;;;;;;4923126;29;19921;-89
2022/08/07 00:53:41;;;;;;;;;;;17.10;49.00;;;;;;4941103;29;19962;-88
2022/08/07 00:56:07;;;;;;;;;;;17.10;49.10;;;;;;4941378;29;19930;-89
2022/08/07 00:58:33;;;;;;;;;;;17.10;49.20;;;;;;4924355;29;19919;-89
2022/08/07 01:00:58;;;;;;;;;;;17.10;49.40;;;;;;4922234;29;19967;-89
2022/08/07 01:03:24;;;;;;;;;;;17.10;49.40;;;;;;4922933;29;19982;-88
2022/08/07 01:05:50;;;;;;;;;;;17.10;49.20;;;;;;4923246;29;20340;-88
2022/08/07 01:08:16;;;;;;;;;;;17.00;49.20;;;;;;4940946;29;19915;-89
2022/08/07 01:10:41;;;;;;;;;;;17.00;49.40;;;;;;4923799;29;19922;-89
2022/08/07 01:13:07;;;;;;;;;;;17.00;49.80;;;;;;4923733;29;19915;-89
2022/08/07 01:15:36;;;;;;;;;;;17.00;49.90;;;;;;4924557;29;19966;-89
2022/08/07 01:18:02;;;;;;;;;;;17.00;49.60;;;;;;4923740;29;20360;-88
2022/08/07 01:20:30;;;;;;;;;;;17.00;49.80;;;;;;4924542;29;19922;-89
2022/08/07 01:22:56;;;;;;;;;;;17.00;50.20;;;;;;4940613;29;19958;-89
2022/08/07 01:25:22;;;;;;;;;;;17.00;50.60;;;;;;4939951;29;20309;-89
2022/08/07 01:27:51;;;;;;;;;;;17.10;50.80;;;;;;4922897;29;20604;-89
2022/08/07 01:30:16;;;;;;;;;;;17.10;50.30;;;;;;4922153;29;20378;-90
2022/08/07 01:32:43;;;;;;;;;;;17.10;50.00;;;;;;4922748;29;19910;-89
2022/08/07 01:35:10;;;;;;;;;;;17.00;49.90;;;;;;4923111;29;20323;-88
2022/08/07 01:37:35;;;;;;;;;;;16.90;49.80;;;;;;4924142;29;19915;-89
2022/08/07 01:40:03;;;;;;;;;;;16.80;49.80;;;;;;4940143;29;19970;-90
2022/08/07 01:42:28;;;;;;;;;;;16.70;50.00;;;;;;4923672;29;19978;-88
2022/08/07 01:44:54;;;;;;;;;;;16.80;50.30;;;;;;4939937;29;20320;-89
2022/08/07 01:47:19;;;;;;;;;;;16.80;50.20;;;;;;4938842;29;20009;-89
2022/08/07 01:49:45;;;;;;;;;;;16.80;50.20;;;;;;4921949;29;19922;-89
2022/08/07 01:52:11;;;;;;;;;;;16.70;50.10;;;;;;4941543;29;19926;-88
2022/08/07 01:54:38;;;;;;;;;;;16.70;50.00;;;;;;4925174;29;20386;-88
2022/08/07 01:57:15;;;;;;;;;;;16.50;50.10;;;;;;4925064;29;20407;-88
2022/08/07 01:59:44;;;;;;;;;;;16.40;50.20;;;;;;4942109;29;19926;-89
2022/08/07 02:02:13;;;;;;;;;;;16.30;50.30;;;;;;4925592;29;19915;-89
2022/08/07 02:04:46;;;;;;;;;;;16.30;50.70;;;;;;4942136;29;19915;-89
2022/08/07 02:07:15;;;;;;;;;;;16.30;50.80;;;;;;4942614;29;19921;-89
2022/08/07 02:09:42;;;;;;;;;;;16.20;50.90;;;;;;4925282;29;19915;-89
2022/08/07 02:12:17;;;;;;;;;;;16.20;50.80;;;;;;4942434;29;19969;-89
2022/08/07 02:14:44;;;;;;;;;;;16.10;51.00;;;;;;4942581;29;19922;-88
2022/08/07 02:17:11;;;;;;;;;;;16.10;51.40;;;;;;4924785;29;19965;-88
2022/08/07 02:19:38;;;;;;;;;;;16.10;51.40;;;;;;4942842;29;19919;-89
2022/08/07 02:22:03;;;;;;;;;;;16.10;51.50;;;;;;4924604;29;19914;-89
2022/08/07 02:24:29;;;;;;;;;;;16.10;51.60;;;;;;4924590;29;19915;-89
2022/08/07 02:26:55;;;;;;;;;;;16.20;51.60;;;;;;4941250;29;19919;-90
2022/08/07 02:29:21;;;;;;;;;;;16.20;51.70;;;;;;4940703;29;19925;-89
2022/08/07 02:31:46;;;;;;;;;;;16.20;51.70;;;;;;4940680;29;20343;-89
2022/08/07 02:34:12;;;;;;;;;;;16.20;51.80;;;;;;4941130;29;19911;-89
2022/08/07 02:36:38;;;;;;;;;;;16.20;51.70;;;;;;4924093;29;19919;-89
2022/08/07 02:39:05;;;;;;;;;;;16.20;51.70;;;;;;4924296;29;19918;-89
2022/08/07 02:41:34;;;;;;;;;;;16.20;51.60;;;;;;4941408;29;19926;-89
2022/08/07 02:44:00;;;;;;;;;;;16.30;51.40;;;;;;4924814;29;19918;-89
2022/08/07 02:46:26;;;;;;;;;;;16.20;51.40;;;;;;4924890;29;19919;-89
2022/08/07 02:48:52;;;;;;;;;;;16.20;51.30;;;;;;4942494;29;19922;-89
2022/08/07 02:51:19;;;;;;;;;;;16.10;51.30;;;;;;4926115;29;19919;-89
2022/08/07 02:53:49;;;;;;;;;;;16.00;51.30;;;;;;4927220;29;19922;-89
2022/08/07 02:56:17;;;;;;;;;;;15.90;51.40;;;;;;4930438;29;19934;-89
2022/08/07 02:58:43;;;;;;;;;;;15.80;51.60;;;;;;4924999;29;19923;-89
2022/08/07 03:01:10;;;;;;;;;;;15.80;51.70;;;;;;4925084;29;19978;-89
2022/08/07 03:03:36;;;;;;;;;;;15.70;51.80;;;;;;4924628;29;19915;-90
2022/08/07 03:06:02;;;;;;;;;;;15.70;52.00;;;;;;4924088;29;19938;-89
2022/08/07 03:08:28;;;;;;;;;;;15.70;51.90;;;;;;4923831;29;20010;-89
2022/08/07 03:10:54;;;;;;;;;;;15.70;51.90;;;;;;4940926;29;19970;-89
2022/08/07 03:13:20;;;;;;;;;;;15.70;52.00;;;;;;4940223;29;20051;-90
2022/08/07 03:15:46;;;;;;;;;;;15.70;52.30;;;;;;4923892;29;20355;-89
2022/08/07 03:18:11;;;;;;;;;;;15.70;52.40;;;;;;4925044;29;19922;-90
2022/08/07 03:20:38;;;;;;;;;;;15.70;52.40;;;;;;4940124;29;19919;-89
2022/08/07 03:23:05;;;;;;;;;;;15.70;52.30;;;;;;4922588;29;19915;-89
2022/08/07 03:25:31;;;;;;;;;;;15.70;52.30;;;;;;4940153;29;19957;-90
2022/08/07 03:27:59;;;;;;;;;;;15.60;52.40;;;;;;4940363;29;20299;-89
2022/08/07 03:30:25;;;;;;;;;;;15.60;52.50;;;;;;4939845;29;20674;-89
2022/08/07 03:32:53;;;;;;;;;;;15.60;52.40;;;;;;4939046;29;21194;-89
2022/08/07 03:35:21;;;;;;;;;;;15.50;52.40;;;;;;4940295;29;19946;-90
2022/08/07 03:37:48;;;;;;;;;;;15.50;52.60;;;;;;4940285;29;19926;-89
2022/08/07 03:40:14;;;;;;;;;;;15.50;52.70;;;;;;4922530;29;19969;-89
2022/08/07 03:42:40;;;;;;;;;;;15.50;52.80;;;;;;4922699;29;19914;-89
2022/08/07 03:45:06;;;;;;;;;;;15.60;53.00;;;;;;4922022;29;19966;-89
2022/08/07 03:47:31;;;;;;;;;;;15.60;53.10;;;;;;4940125;29;19919;-90
2022/08/07 03:49:57;;;;;;;;;;;15.70;53.00;;;;;;4922639;29;20341;-89
2022/08/07 03:52:25;;;;;;;;;;;15.60;52.70;;;;;;4939557;29;19915;-89
2022/08/07 03:54:50;;;;;;;;;;;15.70;53.00;;;;;;4939514;29;20459;-89
2022/08/07 03:57:16;;;;;;;;;;;15.70;53.20;;;;;;4938836;29;19966;-89
2022/08/07 03:59:42;;;;;;;;;;;15.70;53.10;;;;;;4939025;29;19919;-89
2022/08/07 04:02:08;;;;;;;;;;;15.80;53.20;;;;;;4922646;29;19973;-89
2022/08/07 04:04:33;;;;;;;;;;;15.80;53.00;;;;;;4922424;29;19915;-89
2022/08/07 04:06:59;;;;;;;;;;;15.80;53.20;;;;;;4938903;29;19922;-89
2022/08/07 04:09:26;;;;;;;;;;;15.80;53.40;;;;;;4922243;29;19978;-89
2022/08/07 04:11:52;;;;;;;;;;;15.90;53.70;;;;;;4939037;29;19951;-89
2022/08/07 04:14:18;;;;;;;;;;;16.00;54.10;;;;;;4921161;29;20340;-89
2022/08/07 04:16:44;;;;;;;;;;;16.10;54.30;;;;;;4921552;29;20021;-89
2022/08/07 04:19:09;;;;;;;;;;;16.20;54.50;;;;;;4938969;29;19911;-89
2022/08/07 04:21:35;;;;;;;;;;;16.40;54.70;;;;;;4938798;29;20419;-89
2022/08/07 04:24:01;;;;;;;;;;;16.50;54.80;;;;;;4938627;29;19939;-89
2022/08/07 04:26:27;;;;;;;;;;;16.70;55.00;;;;;;4922142;29;19978;-89
2022/08/07 04:28:52;;;;;;;;;;;16.90;55.20;;;;;;4921914;29;20033;-89
2022/08/07 04:31:21;;;;;;;;;;;17.10;55.40;;;;;;4939723;29;19945;-89
2022/08/07 04:33:50;;;;;;;;;;;17.40;55.50;;;;;;4939705;29;20383;-90
2022/08/07 04:36:15;;;;;;;;;;;17.70;55.50;;;;;;4923323;29;19925;-89
2022/08/07 04:38:41;;;;;;;;;;;17.90;55.50;;;;;;4922499;29;19919;-89
2022/08/07 04:41:07;;;;;;;;;;;18.30;55.40;;;;;;4940041;29;19926;-89
2022/08/07 04:43:35;;;;;;;;;;;18.60;55.30;;;;;;4923275;29;19970;-89
2022/08/07 04:46:09;;;;;;;;;;;18.90;55.20;;;;;;4922256;29;20304;-90
2022/08/07 04:48:41;;;;;;;;;;;19.20;55.00;;;;;;4939544;29;19941;-89
2022/08/07 04:51:09;;;;;;;;;;;19.60;54.80;;;;;;4922528;29;19911;-89
2022/08/07 04:54:10;;;;;;;;;;;19.90;54.40;;;;;;4923381;29;19918;-89
2022/08/07 04:56:36;;;;;;;;;;;20.30;54.00;;;;;;4863026;29;20017;-89
2022/08/07 04:59:07;;;;;;;;;;;20.70;53.70;;;;;;4922095;29;19919;-89
2022/08/07 05:01:55;;;;;;;;;;;21.10;53.40;;;;;;4922225;29;19930;-89
2022/08/07 05:04:34;;;;;;;;;;;21.50;52.90;;;;;;4921561;29;20430;-89
2022/08/07 05:07:05;;;;;;;;;;;22.00;52.60;;;;;;4921685;29;19963;-90
2022/08/07 05:09:36;;;;;;;;;;;22.40;52.20;;;;;;4938002;29;19915;-90
2022/08/07 05:12:03;;;;;;;;;;;22.80;51.50;;;;;;4921161;29;20013;-90
2022/08/07 05:14:37;;;;;;;;;;;23.20;50.80;;;;;;4938269;29;19922;-89
2022/08/07 05:17:04;;;;;;;;;;;23.60;50.00;;;;;;4939267;29;20316;-90
2022/08/07 05:19:33;;;;;;;;;;;24.00;49.40;;;;;;4939356;29;19961;-89
2022/08/07 05:21:59;;;;;;;;;;;24.40;48.80;;;;;;4920950;29;19953;-90
2022/08/07 05:24:25;;;;;;;;;;;24.80;48.20;;;;;;4938538;29;20276;-90
2022/08/07 05:26:52;;;;;;;;;;;25.20;47.60;;;;;;4938653;29;19939;-89
2022/08/07 05:29:19;;;;;;;;;;;25.60;46.70;;;;;;4921864;29;19918;-89
2022/08/07 05:31:46;;;;;;;;;;;25.90;45.80;;;;;;4937856;29;19911;-89
2022/08/07 05:34:13;;;;;;;;;;;26.30;45.30;;;;;;4938124;29;19925;-89
2022/08/07 05:36:40;;;;;;;;;;;26.80;44.80;;;;;;4937513;29;19915;-88
2022/08/07 05:39:06;;;;;;;;;;;27.20;44.40;;;;;;4921017;29;19918;-88
2022/08/07 05:41:32;;;;;;;;;;;27.70;43.30;;;;;;4921254;29;19962;-88
2022/08/07 05:43:58;;;;;;;;;;;28.00;42.70;;;;;;4938276;29;19959;-88
2022/08/07 05:46:24;;;;;;;;;;;28.40;41.90;;;;;;4938127;29;19911;-88
2022/08/07 05:48:50;;;;;;;;;;;28.80;40.80;;;;;;4920756;29;19923;-88
2022/08/07 05:51:16;;;;;;;;;;;29.10;39.90;;;;;;4937811;29;20001;-89
2022/08/07 05:53:42;;;;;;;;;;;29.40;39.10;;;;;;4920663;29;19923;-90
2022/08/07 05:56:08;;;;;;;;;;;29.80;38.20;;;;;;4920252;29;19918;-88
2022/08/07 05:58:37;;;;;;;;;;;30.10;37.50;;;;;;4947358;28;19922;-87
2022/08/07 06:01:06;;;;;;;;;;;30.50;36.90;;;;;;4958682;28;20301;-87
2022/08/07 06:03:32;;;;;;;;;;;30.70;36.00;;;;;;4962493;28;19964;-87
2022/08/07 06:05:58;;;;;;;;;;;31.10;35.20;;;;;;4957530;29;20410;-87
2022/08/07 06:08:24;;;;;;;;;;;31.40;34.70;;;;;;4968679;28;19921;-88
2022/08/07 06:10:49;;;;;;;;;;;31.80;33.90;;;;;;4976003;28;19942;-88
2022/08/07 06:13:15;;;;;;;;;;;32.10;33.40;;;;;;4976090;28;20370;-88
2022/08/07 06:15:41;;;;;;;;;;;32.40;32.40;;;;;;4975656;28;20013;-88
2022/08/07 06:18:06;;;;;;;;;;;32.70;31.70;;;;;;4974992;28;19922;-88
2022/08/07 06:20:36;;;;;;;;;;;33.00;31.50;;;;;;4975424;28;20396;-88
2022/08/07 06:23:03;;;;;;;;;;;33.30;31.20;;;;;;4974857;28;20008;-88
2022/08/07 06:25:29;;;;;;;;;;;33.60;30.70;;;;;;4975512;28;19918;-88
2022/08/07 06:28:05;;;;;;;;;;;33.90;30.20;;;;;;4970865;28;19914;-89
2022/08/07 06:30:30;;;;;;;;;;;34.30;29.90;;;;;;4938426;29;19915;-88
2022/08/07 06:32:56;;;;;;;;;;;34.50;29.10;;;;;;4939476;29;20325;-88
2022/08/07 06:35:21;;;;;;;;;;;34.70;28.60;;;;;;4956487;29;19966;-89
2022/08/07 06:37:47;;;;;;;;;;;34.80;28.00;;;;;;4964011;28;19924;-88
2022/08/07 06:40:12;;;;;;;;;;;34.90;27.90;;;;;;4960427;28;20011;-89
2022/08/07 06:42:39;;;;;;;;;;;35.30;27.60;;;;;;4941919;29;19922;-88
2022/08/07 06:45:06;;;;;;;;;;;35.60;27.40;;;;;;4959127;29;19957;-89
2022/08/07 06:47:32;;;;;;;;;;;35.90;26.80;;;;;;4963327;28;19922;-89
2022/08/07 06:49:57;;;;;;;;;;;36.30;26.40;;;;;;4947633;28;19930;-88
2022/08/07 06:52:23;;;;;;;;;;;36.50;25.90;;;;;;4959583;29;20288;-88
2022/08/07 06:54:50;;;;;;;;;;;36.80;25.30;;;;;;4958851;29;20376;-88
2022/08/07 06:57:16;;;;;;;;;;;37.10;25.10;;;;;;4943326;28;19926;-88
2022/08/07 06:59:42;;;;;;;;;;;37.30;24.80;;;;;;4981418;28;20011;-88
2022/08/07 07:02:11;;;;;;;;;;;37.50;24.60;;;;;;4978568;28;19914;-89
2022/08/07 07:04:37;;;;;;;;;;;37.70;23.80;;;;;;4977824;28;20017;-88
2022/08/07 07:07:05;;;;;;;;;;;37.80;23.90;;;;;;4977280;28;19957;-88
2022/08/07 07:09:31;;;;;;;;;;;38.00;23.80;;;;;;4967055;28;20289;-89
2022/08/07 07:12:00;;;;;;;;;;;38.30;23.60;;;;;;4942890;29;19966;-89
2022/08/07 07:14:28;;;;;;;;;;;38.60;23.30;;;;;;4933619;29;19974;-89
2022/08/07 07:16:55;;;;;;;;;;;38.90;22.60;;;;;;4925531;28;19922;-87
2022/08/07 07:19:24;;;;;;;;;;;39.10;22.50;;;;;;4969844;28;19922;-88
2022/08/07 07:21:51;;;;;;;;;;;39.30;22.30;;;;;;4942286;29;20254;-88
2022/08/07 07:24:16;;;;;;;;;;;39.50;21.90;;;;;;4941931;29;19925;-88
2022/08/07 07:26:43;;;;;;;;;;;39.70;21.40;;;;;;4959968;29;19914;-90
2022/08/07 07:29:10;;;;;;;;;;;39.80;21.60;;;;;;4970356;28;20271;-89
2022/08/07 07:31:39;;;;;;;;;;;40.00;20.90;;;;;;4959669;29;19992;-90
2022/08/07 07:34:07;;;;;;;;;;;40.00;21.00;;;;;;4942967;29;19966;-88
2022/08/07 07:36:33;;;;;;;;;;;40.30;21.10;;;;;;4959461;29;19962;-89
2022/08/07 07:38:59;;;;;;;;;;;40.60;20.90;;;;;;4958584;28;19941;-90
2022/08/07 07:41:26;;;;;;;;;;;40.90;20.40;;;;;;4960499;28;19925;-88
2022/08/07 07:43:52;;;;;;;;;;;41.10;20.40;;;;;;4973615;28;19974;-89
2022/08/07 07:46:18;;;;;;;;;;;41.30;19.80;;;;;;4960556;28;19914;-90
2022/08/07 07:48:45;;;;;;;;;;;41.50;19.40;;;;;;4956882;28;19918;-89
2022/08/07 07:51:11;;;;;;;;;;;41.60;19.40;;;;;;4978685;28;20009;-89
2022/08/07 07:53:42;;;;;;;;;;;41.80;19.40;;;;;;4978245;28;19926;-89
2022/08/07 07:56:08;;;;;;;;;;;41.90;19.40;;;;;;4941464;29;20372;-90
2022/08/07 07:58:36;;;;;;;;;;;42.00;19.30;;;;;;4931559;29;19930;-89
2022/08/07 08:01:03;;;;;;;;;;;42.00;18.80;;;;;;4930783;29;19917;-90
2022/08/07 08:03:30;;;;;;;;;;;42.10;18.80;;;;;;4953371;29;19918;-90
2022/08/07 08:05:59;;;;;;;;;;;42.30;19.00;;;;;;4954487;29;20017;-89
2022/08/07 08:08:26;;;;;;;;;;;42.40;18.90;;;;;;4960336;28;19914;-89
2022/08/07 08:10:52;;;;;;;;;;;42.60;18.70;;;;;;4943020;29;19918;-89
2022/08/07 08:13:20;;;;;;;;;;;42.70;18.30;;;;;;4938176;29;19919;-89
2022/08/07 08:15:46;;;;;;;;;;;42.70;18.20;;;;;;4938676;29;20307;-89
2022/08/07 08:18:13;;;;;;;;;;;42.90;18.10;;;;;;4954668;29;19925;-88
2022/08/07 08:20:39;;;;;;;;;;;43.20;18.10;;;;;;4954446;29;19933;-88
2022/08/07 08:28:40;;;;;;;;;;;44.00;17.70;;;;;;4952798;29;19957;-91
2022/08/07 08:31:09;;;;;;;;;;;44.20;17.50;;;;;;4940267;29;19914;-89
2022/08/07 08:33:36;;;;;;;;;;;44.40;17.10;;;;;;4938902;29;19914;-89
2022/08/07 08:36:02;;;;;;;;;;;44.50;17.10;;;;;;4953990;29;19925;-90
2022/08/07 08:38:32;;;;;;;;;;;44.60;17.10;;;;;;4943851;29;19927;-90
2022/08/07 08:41:06;;;;;;;;;;;44.70;17.00;;;;;;4928247;29;20652;-89
2022/08/07 08:43:50;;;;;;;;;;;44.80;16.30;;;;;;4955926;29;19923;-89
2022/08/07 08:46:23;;;;;;;;;;;44.90;16.60;;;;;;4939733;29;19980;-89
2022/08/07 08:48:58;;;;;;;;;;;45.00;16.50;;;;;;4959226;29;19926;-91
2022/08/07 08:52:02;;;;;;;;;;;45.30;15.90;;;;;;4958257;29;19914;-90
2022/08/07 08:54:30;;;;;;;;;;;45.50;16.10;;;;;;4900282;29;20388;-91
2022/08/07 08:56:57;;;;;;;;;;;45.60;15.70;;;;;;4887362;29;19991;-89
2022/08/07 08:59:39;;;;;;;;;;;45.60;15.40;;;;;;4916233;28;19930;-89
2022/08/07 09:02:21;;;;;;;;;;;45.50;14.40;;;;;;4956916;29;19942;-89
2022/08/07 09:04:55;;;;;;;;;;;45.50;14.10;;;;;;4951502;29;19919;-91
2022/08/07 09:07:40;;;;;;;;;;;45.40;13.70;;;;;;4956772;29;20360;-88
2022/08/07 09:10:10;;;;;;;;;;;45.40;14.00;;;;;;4940068;29;19923;-89
2022/08/07 09:12:46;;;;;;;;;;;45.50;13.70;;;;;;4942781;29;19915;-89
2022/08/07 09:15:29;;;;;;;;;;;45.40;13.60;;;;;;4958164;29;19922;-89
2022/08/07 09:18:10;;;;;;;;;;;45.50;13.70;;;;;;4956763;29;19914;-89
2022/08/07 09:20:35;;;;;;;;;;;45.60;13.60;;;;;;4939933;29;19969;-88
2022/08/07 09:23:04;;;;;;;;;;;45.70;13.80;;;;;;4958149;29;20030;-88
2022/08/07 09:25:30;;;;;;;;;;;45.90;13.90;;;;;;4956243;29;19929;-90
2022/08/07 09:28:06;;;;;;;;;;;46.10;13.90;;;;;;4946454;29;20674;-90
2022/08/07 09:30:45;;;;;;;;;;;46.40;14.10;;;;;;4955857;29;20057;-90
2022/08/07 09:33:11;;;;;;;;;;;46.70;14.10;;;;;;4954953;29;19922;-89
2022/08/07 09:35:39;;;;;;;;;;;46.80;13.50;;;;;;4941316;29;19918;-90
2022/08/07 09:38:10;;;;;;;;;;;46.80;13.40;;;;;;4957255;29;20356;-89
2022/08/07 09:40:55;;;;;;;;;;;46.80;13.20;;;;;;4955571;29;20279;-89
2022/08/07 09:43:20;;;;;;;;;;;47.00;13.30;;;;;;4950790;29;19921;-88
2022/08/07 09:46:07;;;;;;;;;;;47.00;12.80;;;;;;4935983;29;19918;-88
2022/08/07 09:48:51;;;;;;;;;;;46.90;12.60;;;;;;4955273;29;19943;-89
2022/08/07 09:51:35;;;;;;;;;;;46.70;12.50;;;;;;4938219;29;19918;-89
2022/08/07 09:54:02;;;;;;;;;;;46.60;12.60;;;;;;4947416;29;19929;-89
2022/08/07 09:56:31;;;;;;;;;;;46.80;12.90;;;;;;4937700;29;20446;-90
2022/08/07 09:59:03;;;;;;;;;;;46.80;12.20;;;;;;4937276;29;19930;-88
2022/08/07 10:02:02;;;;;;;;;;;46.90;12.30;;;;;;4937568;29;20021;-89
2022/08/07 10:04:27;;;;;;;;;;;47.10;12.50;;;;;;4918064;29;20742;-91
2022/08/07 10:07:11;;;;;;;;;;;47.20;12.60;;;;;;4955282;29;19918;-89
2022/08/07 10:09:40;;;;;;;;;;;47.30;12.30;;;;;;4955032;29;20367;-90
2022/08/07 10:12:05;;;;;;;;;;;47.40;12.40;;;;;;4949457;28;19915;-90
2022/08/07 10:15:04;;;;;;;;;;;47.70;12.20;;;;;;4951680;29;20268;-90
2022/08/07 10:17:39;;;;;;;;;;;47.70;12.30;;;;;;4933988;29;19923;-89
2022/08/07 10:20:14;;;;;;;;;;;47.80;12.40;;;;;;4942919;29;19925;-90
2022/08/07 10:22:55;;;;;;;;;;;48.10;12.20;;;;;;4960792;29;20275;-90
2022/08/07 10:25:23;;;;;;;;;;;48.20;11.60;;;;;;4949902;29;20039;-90
2022/08/07 10:27:51;;;;;;;;;;;48.20;11.60;;;;;;4944260;29;19914;-90
2022/08/07 10:30:33;;;;;;;;;;;48.10;11.60;;;;;;4945349;29;19922;-90
2022/08/07 10:33:09;;;;;;;;;;;48.00;11.40;;;;;;4959391;29;19915;-91
2022/08/07 10:35:53;;;;;;;;;;;47.80;11.30;;;;;;4963166;29;19927;-88
2022/08/07 10:38:35;;;;;;;;;;;47.80;11.50;;;;;;4951371;29;19914;-88
2022/08/07 10:41:01;;;;;;;;;;;47.70;11.70;;;;;;4941094;29;19914;-91
2022/08/07 10:43:29;;;;;;;;;;;47.70;11.40;;;;;;4945195;29;20339;-90
2022/08/07 10:45:58;;;;;;;;;;;47.70;11.50;;;;;;4941356;29;19942;-89
2022/08/07 10:48:45;;;;;;;;;;;47.70;10.90;;;;;;4938619;29;19946;-89
2022/08/07 10:51:20;;;;;;;;;;;47.50;11.30;;;;;;4924126;29;19997;-89
2022/08/07 10:53:49;;;;;;;;;;;47.60;11.70;;;;;;4944931;29;20651;-89
2022/08/07 10:56:18;;;;;;;;;;;47.80;11.60;;;;;;4957988;29;20268;-88
2022/08/07 10:58:52;;;;;;;;;;;47.80;11.20;;;;;;4958087;29;19962;-89
2022/08/07 11:01:18;;;;;;;;;;;47.80;11.10;;;;;;4957329;29;19949;-89
2022/08/07 11:04:04;;;;;;;;;;;47.70;11.30;;;;;;4956828;29;19957;-89
2022/08/07 11:06:30;;;;;;;;;;;47.10;11.10;;;;;;4957189;29;20362;-88
2022/08/07 11:09:17;;;;;;;;;;;46.50;11.40;;;;;;4958351;29;19929;-89
2022/08/07 11:12:01;;;;;;;;;;;46.50;11.40;;;;;;4940404;29;19919;-89
2022/08/07 11:14:39;;;;;;;;;;;46.60;11.30;;;;;;4941273;29;20017;-89
2022/08/07 11:17:20;;;;;;;;;;;46.70;11.50;;;;;;4963391;29;19928;-90
2022/08/07 11:19:48;;;;;;;;;;;47.00;11.30;;;;;;4948614;29;20327;-91
2022/08/07 11:22:17;;;;;;;;;;;47.10;11.50;;;;;;4941978;28;19915;-90
2022/08/07 11:24:58;;;;;;;;;;;47.20;11.40;;;;;;4959267;29;19961;-90
2022/08/07 11:27:28;;;;;;;;;;;46.90;11.60;;;;;;4958656;29;19978;-89
2022/08/07 11:30:03;;;;;;;;;;;46.00;11.60;;;;;;4959693;29;19923;-89
2022/08/07 11:32:37;;;;;;;;;;;44.80;11.70;;;;;;4957329;29;19914;-89
2022/08/07 11:35:23;;;;;;;;;;;43.70;12.10;;;;;;4940902;29;19929;-89
2022/08/07 11:38:02;;;;;;;;;;;42.80;12.60;;;;;;4955477;29;20298;-90
2022/08/07 11:40:34;;;;;;;;;;;42.10;13.00;;;;;;4941682;29;19922;-89
2022/08/07 11:43:10;;;;;;;;;;;42.10;13.20;;;;;;4960518;29;19915;-90
2022/08/07 11:45:56;;;;;;;;;;;41.80;13.30;;;;;;4953565;29;19922;-90
2022/08/07 11:48:40;;;;;;;;;;;42.00;13.50;;;;;;4938483;29;19918;-89
2022/08/07 11:51:06;;;;;;;;;;;41.70;13.60;;;;;;4960566;29;19922;-88
2022/08/07 11:53:42;;;;;;;;;;;41.00;13.90;;;;;;4942427;29;19914;-88
2022/08/07 11:56:26;;;;;;;;;;;40.80;14.00;;;;;;4960108;29;19984;-87
2022/08/07 11:59:01;;;;;;;;;;;40.30;14.30;;;;;;4960162;29;19922;-89
2022/08/07 12:01:34;;;;;;;;;;;39.80;14.60;;;;;;4942324;29;19922;-89
2022/08/07 12:04:00;;;;;;;;;;;39.30;14.90;;;;;;4952238;29;19914;-89
2022/08/07 12:06:47;;;;;;;;;;;38.70;15.10;;;;;;4941536;29;19941;-88
2022/08/07 12:09:13;;;;;;;;;;;38.30;15.30;;;;;;4932135;29;19972;-89
2022/08/07 12:11:42;;;;;;;;;;;38.80;15.40;;;;;;4960594;29;20009;-89
2022/08/07 12:14:08;;;;;;;;;;;38.80;15.40;;;;;;4959052;29;19919;-88
2022/08/07 12:16:39;;;;;;;;;;;39.30;15.30;;;;;;4942128;29;19928;-90
2022/08/07 12:19:24;;;;;;;;;;;40.00;15.00;;;;;;4942204;29;20292;-90
2022/08/07 12:21:55;;;;;;;;;;;40.60;14.60;;;;;;4942176;29;19922;-89
2022/08/07 12:24:29;;;;;;;;;;;40.90;14.30;;;;;;4943740;29;19911;-88
2022/08/07 12:27:03;;;;;;;;;;;41.40;14.30;;;;;;4943370;29;19922;-89
2022/08/07 12:29:47;;;;;;;;;;;42.00;13.80;;;;;;4941679;29;19999;-88
2022/08/07 12:32:20;;;;;;;;;;;42.50;13.70;;;;;;4941254;29;19918;-89
2022/08/07 12:34:46;;;;;;;;;;;43.00;13.50;;;;;;4938031;29;19950;-89
2022/08/07 12:37:15;;;;;;;;;;;43.40;13.40;;;;;;4937377;29;20385;-89
2022/08/07 12:39:41;;;;;;;;;;;43.60;13.10;;;;;;4943277;29;20355;-90
2022/08/07 12:42:09;;;;;;;;;;;43.80;12.80;;;;;;4942418;29;19929;-90
2022/08/07 12:44:37;;;;;;;;;;;44.00;12.90;;;;;;4941685;29;19934;-89
2022/08/07 12:47:21;;;;;;;;;;;44.30;12.90;;;;;;4941641;29;20496;-89
2022/08/07 12:49:51;;;;;;;;;;;44.50;12.90;;;;;;4944214;29;19915;-90
2022/08/07 12:52:24;;;;;;;;;;;44.90;12.80;;;;;;4943748;29;19922;-90
2022/08/07 12:55:03;;;;;;;;;;;45.00;12.50;;;;;;4943306;29;19922;-91
2022/08/07 12:57:34;;;;;;;;;;;45.00;12.30;;;;;;4958421;29;20466;-89
2022/08/07 13:00:04;;;;;;;;;;;45.00;12.10;;;;;;4942811;29;20401;-90
2022/08/07 13:02:39;;;;;;;;;;;44.70;12.20;;;;;;4941010;29;19970;-90
2022/08/07 13:05:23;;;;;;;;;;;44.40;11.90;;;;;;4941062;29;19922;-90
2022/08/07 13:08:08;;;;;;;;;;;44.00;12.00;;;;;;4936631;29;19903;-91
2022/08/07 13:10:33;;;;;;;;;;;43.90;12.20;;;;;;4942046;29;19922;-89
2022/08/07 13:13:05;;;;;;;;;;;43.60;12.10;;;;;;4941677;29;19942;-88
2022/08/07 13:15:33;;;;;;;;;;;43.20;12.30;;;;;;4937754;29;19973;-87
2022/08/07 13:18:12;;;;;;;;;;;42.90;12.50;;;;;;4942195;29;19954;-90
2022/08/07 13:20:45;;;;;;;;;;;42.80;12.60;;;;;;4948045;29;19918;-87
2022/08/07 13:23:19;;;;;;;;;;;42.80;12.70;;;;;;4938507;29;19926;-87
2022/08/07 13:25:49;;;;;;;;;;;42.60;12.50;;;;;;4951753;29;19925;-87
2022/08/07 13:28:18;;;;;;;;;;;42.30;12.80;;;;;;4940833;28;19925;-87
2022/08/07 13:30:48;;;;;;;;;;;42.30;12.70;;;;;;4953588;29;19914;-87
2022/08/07 13:33:25;;;;;;;;;;;41.80;12.70;;;;;;4940831;29;19923;-86
2022/08/07 13:35:57;;;;;;;;;;;41.30;12.90;;;;;;4945992;29;19922;-86
2022/08/07 13:38:35;;;;;;;;;;;40.80;13.40;;;;;;4950010;28;20301;-89
2022/08/07 13:41:03;;;;;;;;;;;40.40;13.60;;;;;;4957524;29;19910;-89
2022/08/07 13:43:29;;;;;;;;;;;39.90;13.90;;;;;;4954756;29;20005;-89
2022/08/07 13:45:57;;;;;;;;;;;39.70;14.10;;;;;;4948891;29;19950;-89
2022/08/07 13:48:24;;;;;;;;;;;39.40;14.40;;;;;;4950016;28;20013;-89
2022/08/07 13:50:51;;;;;;;;;;;39.00;14.60;;;;;;4947536;29;19918;-87
2022/08/07 13:53:18;;;;;;;;;;;38.40;15.00;;;;;;4961602;29;19914;-89
2022/08/07 13:55:45;;;;;;;;;;;37.70;15.50;;;;;;4962494;29;20017;-87
2022/08/07 14:00:57;;;;;;;;;;;36.30;16.30;;;;;;4962135;29;19942;-88
2022/08/07 14:03:24;;;;;;;;;;;35.50;16.70;;;;;;4962109;29;19974;-90
2022/08/07 14:05:51;;;;;;;;;;;35.10;17.00;;;;;;4937247;29;19939;-90
2022/08/07 14:08:19;;;;;;;;;;;34.70;17.40;;;;;;4959194;28;20072;-87
2022/08/07 14:10:45;;;;;;;;;;;34.50;17.60;;;;;;4957039;29;20558;-88
2022/08/07 14:13:15;;;;;;;;;;;34.10;17.80;;;;;;4960678;29;19915;-87
2022/08/07 14:15:50;;;;;;;;;;;33.80;18.10;;;;;;4958949;29;19946;-87
2022/08/07 14:18:23;;;;;;;;;;;33.60;18.40;;;;;;4965600;28;20366;-89
2022/08/07 14:20:49;;;;;;;;;;;33.30;18.60;;;;;;4949591;29;20371;-89
2022/08/07 14:23:16;;;;;;;;;;;33.20;18.80;;;;;;4949784;29;19942;-88
2022/08/07 14:25:43;;;;;;;;;;;32.90;18.80;;;;;;4943276;29;19943;-88
2022/08/07 14:28:10;;;;;;;;;;;32.70;19.20;;;;;;4960892;28;20365;-87
2022/08/07 14:30:36;;;;;;;;;;;32.50;19.40;;;;;;4945726;28;20347;-90
2022/08/07 14:33:02;;;;;;;;;;;32.40;19.50;;;;;;4944745;29;19918;-89
2022/08/07 14:35:32;;;;;;;;;;;32.30;19.70;;;;;;4944361;29;19978;-89
2022/08/07 14:37:58;;;;;;;;;;;32.20;19.90;;;;;;4949036;28;19923;-90